sensor_id;sensor_type;location;lat;lon;timestamp;P1;durP1;ratioP1;P2;durP2;ratioP2
22320;SDS011;11328;53.928;18.522;2022-08-19T00:02:01;22.98;;;11.13;;
22320;SDS011;11328;53.928;18.522;2022-08-19T00:04:30;19.48;;;10.32;;
22320;SDS011;11328;53.928;18.522;2022-08-19T00:07:03;17.13;;;10.55;;
22320;SDS011;11328;53.928;18.522;2022-08-19T00:09:32;16.60;;;11.00;;
22320;SDS011;11328;53.928;18.522;2022-08-19T00:12:00;16.98;;;11.50;;
22320;SDS011;11328;53.928;18.522;2022-08-19T00:14:27;18.85;;;11.85;;
22320;SDS011;11328;53.928;18.522;2022-08-19T00:16:57;16.98;;;10.80;;
22320;SDS011;11328;53.928;18.522;2022-08-19T00:19:25;20.40;;;10.80;;
22320;SDS011;11328;53.928;18.522;2022-08-19T00:21:52;18.05;;;11.75;;
22320;SDS011;11328;53.928;18.522;2022-08-19T00:24:19;19.88;;;11.45;;
22320;SDS011;11328;53.928;18.522;2022-08-19T00:26:46;16.15;;;11.23;;
22320;SDS011;11328;53.928;18.522;2022-08-19T00:29:15;19.02;;;11.20;;
22320;SDS011;11328;53.928;18.522;2022-08-19T00:31:46;28.27;;;11.90;;
22320;SDS011;11328;53.928;18.522;2022-08-19T00:34:15;19.55;;;11.60;;
22320;SDS011;11328;53.928;18.522;2022-08-19T00:36:43;14.68;;;10.65;;
22320;SDS011;11328;53.928;18.522;2022-08-19T00:39:11;19.42;;;11.30;;
22320;SDS011;11328;53.928;18.522;2022-08-19T00:41:39;17.15;;;11.70;;
22320;SDS011;11328;53.928;18.522;2022-08-19T00:44:14;15.93;;;11.35;;
22320;SDS011;11328;53.928;18.522;2022-08-19T00:46:53;16.92;;;10.48;;
22320;SDS011;11328;53.928;18.522;2022-08-19T00:49:34;17.95;;;10.88;;
22320;SDS011;11328;53.928;18.522;2022-08-19T00:52:12;16.90;;;11.88;;
22320;SDS011;11328;53.928;18.522;2022-08-19T00:54:47;15.75;;;11.10;;
22320;SDS011;11328;53.928;18.522;2022-08-19T00:57:18;21.38;;;11.93;;
22320;SDS011;11328;53.928;18.522;2022-08-19T01:00:00;17.43;;;10.93;;
22320;SDS011;11328;53.928;18.522;2022-08-19T01:02:31;17.63;;;11.13;;
22320;SDS011;11328;53.928;18.522;2022-08-19T01:05:00;18.60;;;11.07;;
22320;SDS011;11328;53.928;18.522;2022-08-19T01:07:33;18.05;;;11.00;;
22320;SDS011;11328;53.928;18.522;2022-08-19T01:10:04;19.70;;;11.07;;
22320;SDS011;11328;53.928;18.522;2022-08-19T01:12:40;17.65;;;10.80;;
22320;SDS011;11328;53.928;18.522;2022-08-19T01:15:08;17.55;;;11.32;;
22320;SDS011;11328;53.928;18.522;2022-08-19T01:17:40;16.58;;;12.00;;
22320;SDS011;11328;53.928;18.522;2022-08-19T01:20:10;16.80;;;10.95;;
22320;SDS011;11328;53.928;18.522;2022-08-19T01:22:52;18.67;;;11.15;;
22320;SDS011;11328;53.928;18.522;2022-08-19T01:25:28;18.42;;;10.98;;
22320;SDS011;11328;53.928;18.522;2022-08-19T01:28:05;16.88;;;11.20;;
22320;SDS011;11328;53.928;18.522;2022-08-19T01:30:36;20.50;;;10.82;;
22320;SDS011;11328;53.928;18.522;2022-08-19T01:33:03;16.58;;;10.55;;
22320;SDS011;11328;53.928;18.522;2022-08-19T01:35:31;15.88;;;10.88;;
22320;SDS011;11328;53.928;18.522;2022-08-19T01:38:02;15.57;;;10.60;;
22320;SDS011;11328;53.928;18.522;2022-08-19T01:40:35;19.77;;;11.30;;
22320;SDS011;11328;53.928;18.522;2022-08-19T01:43:06;15.15;;;11.88;;
22320;SDS011;11328;53.928;18.522;2022-08-19T01:45:34;17.88;;;11.65;;
22320;SDS011;11328;53.928;18.522;2022-08-19T01:48:02;19.73;;;11.50;;
22320;SDS011;11328;53.928;18.522;2022-08-19T01:50:30;21.02;;;11.43;;
22320;SDS011;11328;53.928;18.522;2022-08-19T01:53:00;18.73;;;11.50;;
22320;SDS011;11328;53.928;18.522;2022-08-19T01:55:33;16.60;;;11.27;;
22320;SDS011;11328;53.928;18.522;2022-08-19T01:58:07;18.75;;;11.68;;
22320;SDS011;11328;53.928;18.522;2022-08-19T02:00:47;17.77;;;12.23;;
22320;SDS011;11328;53.928;18.522;2022-08-19T02:03:14;16.85;;;11.57;;
22320;SDS011;11328;53.928;18.522;2022-08-19T02:05:42;16.52;;;11.40;;
22320;SDS011;11328;53.928;18.522;2022-08-19T02:08:11;14.32;;;10.88;;
22320;SDS011;11328;53.928;18.522;2022-08-19T02:10:40;18.00;;;11.00;;
22320;SDS011;11328;53.928;18.522;2022-08-19T02:13:10;18.88;;;11.35;;
22320;SDS011;11328;53.928;18.522;2022-08-19T02:15:39;15.73;;;11.30;;
22320;SDS011;11328;53.928;18.522;2022-08-19T02:18:07;15.00;;;11.00;;
22320;SDS011;11328;53.928;18.522;2022-08-19T02:20:35;23.77;;;11.27;;
22320;SDS011;11328;53.928;18.522;2022-08-19T02:23:05;28.58;;;11.82;;
22320;SDS011;11328;53.928;18.522;2022-08-19T02:25:41;18.38;;;11.40;;
22320;SDS011;11328;53.928;18.522;2022-08-19T02:28:14;16.00;;;11.25;;
22320;SDS011;11328;53.928;18.522;2022-08-19T02:30:44;15.60;;;11.18;;
22320;SDS011;11328;53.928;18.522;2022-08-19T02:33:12;18.30;;;11.60;;
22320;SDS011;11328;53.928;18.522;2022-08-19T02:35:43;18.73;;;12.43;;
22320;SDS011;11328;53.928;18.522;2022-08-19T02:38:12;17.17;;;12.07;;
22320;SDS011;11328;53.928;18.522;2022-08-19T02:40:53;15.27;;;11.45;;
22320;SDS011;11328;53.928;18.522;2022-08-19T02:43:24;21.65;;;11.27;;
22320;SDS011;11328;53.928;18.522;2022-08-19T02:45:53;16.17;;;11.55;;
22320;SDS011;11328;53.928;18.522;2022-08-19T02:48:21;21.23;;;11.93;;
22320;SDS011;11328;53.928;18.522;2022-08-19T02:50:51;18.15;;;12.30;;
22320;SDS011;11328;53.928;18.522;2022-08-19T02:53:22;15.68;;;11.38;;
22320;SDS011;11328;53.928;18.522;2022-08-19T02:55:53;19.50;;;12.10;;
22320;SDS011;11328;53.928;18.522;2022-08-19T02:58:21;21.08;;;12.80;;
22320;SDS011;11328;53.928;18.522;2022-08-19T03:00:54;17.02;;;11.13;;
22320;SDS011;11328;53.928;18.522;2022-08-19T03:03:23;22.77;;;12.57;;
22320;SDS011;11328;53.928;18.522;2022-08-19T03:05:50;16.20;;;12.40;;
22320;SDS011;11328;53.928;18.522;2022-08-19T03:08:22;18.65;;;12.65;;
22320;SDS011;11328;53.928;18.522;2022-08-19T03:10:51;19.17;;;12.63;;
22320;SDS011;11328;53.928;18.522;2022-08-19T03:13:20;17.98;;;13.20;;
22320;SDS011;11328;53.928;18.522;2022-08-19T03:15:47;17.40;;;13.27;;
22320;SDS011;11328;53.928;18.522;2022-08-19T03:18:15;19.02;;;12.90;;
22320;SDS011;11328;53.928;18.522;2022-08-19T03:20:44;20.05;;;12.43;;
22320;SDS011;11328;53.928;18.522;2022-08-19T03:23:14;18.13;;;12.85;;
22320;SDS011;11328;53.928;18.522;2022-08-19T03:25:44;22.17;;;13.55;;
22320;SDS011;11328;53.928;18.522;2022-08-19T03:28:33;22.95;;;13.52;;
22320;SDS011;11328;53.928;18.522;2022-08-19T03:31:04;52.10;;;14.63;;
22320;SDS011;11328;53.928;18.522;2022-08-19T03:33:56;30.45;;;14.07;;
22320;SDS011;11328;53.928;18.522;2022-08-19T03:36:24;19.05;;;12.95;;
22320;SDS011;11328;53.928;18.522;2022-08-19T03:38:56;20.60;;;14.20;;
22320;SDS011;11328;53.928;18.522;2022-08-19T03:41:28;22.42;;;13.70;;
22320;SDS011;11328;53.928;18.522;2022-08-19T03:44:25;16.17;;;13.27;;
22320;SDS011;11328;53.928;18.522;2022-08-19T03:46:53;22.88;;;14.05;;
22320;SDS011;11328;53.928;18.522;2022-08-19T03:49:24;25.52;;;14.48;;
22320;SDS011;11328;53.928;18.522;2022-08-19T03:51:56;22.63;;;13.70;;
22320;SDS011;11328;53.928;18.522;2022-08-19T03:54:26;22.40;;;14.27;;
22320;SDS011;11328;53.928;18.522;2022-08-19T03:56:55;21.85;;;13.93;;
22320;SDS011;11328;53.928;18.522;2022-08-19T03:59:30;19.90;;;14.05;;
22320;SDS011;11328;53.928;18.522;2022-08-19T04:02:00;18.92;;;14.43;;
22320;SDS011;11328;53.928;18.522;2022-08-19T04:04:35;19.45;;;14.13;;
22320;SDS011;11328;53.928;18.522;2022-08-19T04:07:05;19.38;;;14.00;;
22320;SDS011;11328;53.928;18.522;2022-08-19T04:09:33;19.92;;;13.75;;
22320;SDS011;11328;53.928;18.522;2022-08-19T04:12:02;21.45;;;14.00;;
22320;SDS011;11328;53.928;18.522;2022-08-19T04:14:31;21.90;;;14.25;;
22320;SDS011;11328;53.928;18.522;2022-08-19T04:17:00;21.95;;;14.18;;
22320;SDS011;11328;53.928;18.522;2022-08-19T04:19:31;19.05;;;14.18;;
22320;SDS011;11328;53.928;18.522;2022-08-19T04:22:01;18.95;;;14.35;;
22320;SDS011;11328;53.928;18.522;2022-08-19T04:24:29;22.23;;;15.05;;
22320;SDS011;11328;53.928;18.522;2022-08-19T04:26:59;22.17;;;15.00;;
22320;SDS011;11328;53.928;18.522;2022-08-19T04:29:30;26.38;;;14.93;;
22320;SDS011;11328;53.928;18.522;2022-08-19T04:31:57;21.27;;;15.10;;
22320;SDS011;11328;53.928;18.522;2022-08-19T04:34:35;20.00;;;14.25;;
22320;SDS011;11328;53.928;18.522;2022-08-19T04:37:23;20.33;;;14.63;;
22320;SDS011;11328;53.928;18.522;2022-08-19T04:39:50;20.70;;;14.63;;
22320;SDS011;11328;53.928;18.522;2022-08-19T04:42:36;20.95;;;14.35;;
22320;SDS011;11328;53.928;18.522;2022-08-19T04:45:07;22.88;;;15.30;;
22320;SDS011;11328;53.928;18.522;2022-08-19T04:50:17;19.70;;;15.30;;
22320;SDS011;11328;53.928;18.522;2022-08-19T04:52:44;20.98;;;15.45;;
22320;SDS011;11328;53.928;18.522;2022-08-19T04:55:12;24.60;;;15.27;;
22320;SDS011;11328;53.928;18.522;2022-08-19T04:57:39;20.08;;;14.95;;
22320;SDS011;11328;53.928;18.522;2022-08-19T05:00:08;21.60;;;14.93;;
22320;SDS011;11328;53.928;18.522;2022-08-19T05:02:37;20.50;;;14.48;;
22320;SDS011;11328;53.928;18.522;2022-08-19T05:05:05;23.95;;;15.00;;
22320;SDS011;11328;53.928;18.522;2022-08-19T05:07:33;23.02;;;14.35;;
22320;SDS011;11328;53.928;18.522;2022-08-19T05:10:00;23.02;;;14.68;;
22320;SDS011;11328;53.928;18.522;2022-08-19T05:12:28;21.55;;;14.07;;
22320;SDS011;11328;53.928;18.522;2022-08-19T05:14:56;18.67;;;14.50;;
22320;SDS011;11328;53.928;18.522;2022-08-19T05:17:25;20.15;;;14.50;;
22320;SDS011;11328;53.928;18.522;2022-08-19T05:19:58;22.83;;;14.85;;
22320;SDS011;11328;53.928;18.522;2022-08-19T05:22:45;20.00;;;15.05;;
22320;SDS011;11328;53.928;18.522;2022-08-19T05:25:14;22.40;;;15.43;;
22320;SDS011;11328;53.928;18.522;2022-08-19T05:27:46;20.92;;;14.88;;
22320;SDS011;11328;53.928;18.522;2022-08-19T05:30:14;20.20;;;15.00;;
22320;SDS011;11328;53.928;18.522;2022-08-19T05:32:42;20.27;;;15.40;;
22320;SDS011;11328;53.928;18.522;2022-08-19T05:35:10;22.02;;;15.40;;
22320;SDS011;11328;53.928;18.522;2022-08-19T05:37:38;21.13;;;15.57;;
22320;SDS011;11328;53.928;18.522;2022-08-19T05:40:08;22.33;;;15.88;;
22320;SDS011;11328;53.928;18.522;2022-08-19T05:42:36;21.60;;;15.45;;
22320;SDS011;11328;53.928;18.522;2022-08-19T05:45:04;19.73;;;15.98;;
22320;SDS011;11328;53.928;18.522;2022-08-19T05:47:32;22.02;;;15.80;;
22320;SDS011;11328;53.928;18.522;2022-08-19T05:50:07;22.98;;;15.48;;
22320;SDS011;11328;53.928;18.522;2022-08-19T05:52:34;23.20;;;14.88;;
22320;SDS011;11328;53.928;18.522;2022-08-19T05:55:11;24.25;;;14.93;;
22320;SDS011;11328;53.928;18.522;2022-08-19T05:57:38;22.80;;;14.65;;
22320;SDS011;11328;53.928;18.522;2022-08-19T06:00:06;21.17;;;14.57;;
22320;SDS011;11328;53.928;18.522;2022-08-19T06:02:37;19.45;;;14.82;;
22320;SDS011;11328;53.928;18.522;2022-08-19T06:05:06;19.55;;;14.15;;
22320;SDS011;11328;53.928;18.522;2022-08-19T06:07:35;26.20;;;14.57;;
22320;SDS011;11328;53.928;18.522;2022-08-19T06:10:05;23.08;;;14.30;;
22320;SDS011;11328;53.928;18.522;2022-08-19T06:12:35;20.55;;;13.57;;
22320;SDS011;11328;53.928;18.522;2022-08-19T06:15:07;17.55;;;13.82;;
22320;SDS011;11328;53.928;18.522;2022-08-19T06:17:37;18.40;;;13.23;;
22320;SDS011;11328;53.928;18.522;2022-08-19T06:20:06;22.02;;;13.57;;
22320;SDS011;11328;53.928;18.522;2022-08-19T06:22:38;17.55;;;12.55;;
22320;SDS011;11328;53.928;18.522;2022-08-19T06:25:13;19.35;;;12.52;;
22320;SDS011;11328;53.928;18.522;2022-08-19T06:27:41;18.15;;;12.45;;
22320;SDS011;11328;53.928;18.522;2022-08-19T06:30:28;15.43;;;11.75;;
22320;SDS011;11328;53.928;18.522;2022-08-19T06:32:55;20.38;;;12.60;;
22320;SDS011;11328;53.928;18.522;2022-08-19T06:35:22;18.60;;;12.57;;
22320;SDS011;11328;53.928;18.522;2022-08-19T06:37:49;16.15;;;11.38;;
22320;SDS011;11328;53.928;18.522;2022-08-19T06:40:18;16.80;;;11.60;;
22320;SDS011;11328;53.928;18.522;2022-08-19T06:42:46;17.25;;;11.43;;
22320;SDS011;11328;53.928;18.522;2022-08-19T06:45:20;24.10;;;12.18;;
22320;SDS011;11328;53.928;18.522;2022-08-19T06:47:50;18.10;;;11.52;;
22320;SDS011;11328;53.928;18.522;2022-08-19T06:50:24;16.70;;;11.10;;
22320;SDS011;11328;53.928;18.522;2022-08-19T06:52:51;18.75;;;11.63;;
22320;SDS011;11328;53.928;18.522;2022-08-19T06:55:20;16.98;;;11.48;;
22320;SDS011;11328;53.928;18.522;2022-08-19T06:57:49;17.15;;;10.35;;
22320;SDS011;11328;53.928;18.522;2022-08-19T07:00:20;17.95;;;10.40;;
22320;SDS011;11328;53.928;18.522;2022-08-19T07:02:47;16.67;;;10.63;;
22320;SDS011;11328;53.928;18.522;2022-08-19T07:05:24;18.92;;;10.60;;
22320;SDS011;11328;53.928;18.522;2022-08-19T07:07:51;14.30;;;10.55;;
22320;SDS011;11328;53.928;18.522;2022-08-19T07:10:22;18.05;;;10.45;;
22320;SDS011;11328;53.928;18.522;2022-08-19T07:12:51;18.35;;;10.50;;
22320;SDS011;11328;53.928;18.522;2022-08-19T07:15:18;20.50;;;10.02;;
22320;SDS011;11328;53.928;18.522;2022-08-19T07:17:47;14.15;;;9.77;;
22320;SDS011;11328;53.928;18.522;2022-08-19T07:20:17;16.08;;;9.88;;
22320;SDS011;11328;53.928;18.522;2022-08-19T07:22:45;18.98;;;9.60;;
22320;SDS011;11328;53.928;18.522;2022-08-19T07:25:12;18.88;;;9.85;;
22320;SDS011;11328;53.928;18.522;2022-08-19T07:27:39;19.63;;;9.48;;
22320;SDS011;11328;53.928;18.522;2022-08-19T07:30:11;17.73;;;9.63;;
22320;SDS011;11328;53.928;18.522;2022-08-19T07:32:40;15.82;;;9.13;;
22320;SDS011;11328;53.928;18.522;2022-08-19T07:35:07;13.77;;;9.00;;
22320;SDS011;11328;53.928;18.522;2022-08-19T07:37:35;16.20;;;9.10;;
22320;SDS011;11328;53.928;18.522;2022-08-19T07:40:04;14.63;;;9.02;;
22320;SDS011;11328;53.928;18.522;2022-08-19T07:42:33;15.68;;;9.45;;
22320;SDS011;11328;53.928;18.522;2022-08-19T07:45:00;19.13;;;8.93;;
22320;SDS011;11328;53.928;18.522;2022-08-19T07:47:28;15.23;;;8.70;;
22320;SDS011;11328;53.928;18.522;2022-08-19T07:50:16;18.33;;;8.98;;
22320;SDS011;11328;53.928;18.522;2022-08-19T07:52:46;13.68;;;8.45;;
22320;SDS011;11328;53.928;18.522;2022-08-19T07:55:17;14.38;;;8.05;;
22320;SDS011;11328;53.928;18.522;2022-08-19T07:58:09;14.32;;;8.60;;
22320;SDS011;11328;53.928;18.522;2022-08-19T08:00:43;14.93;;;7.90;;
22320;SDS011;11328;53.928;18.522;2022-08-19T08:03:13;20.60;;;8.10;;
22320;SDS011;11328;53.928;18.522;2022-08-19T08:05:43;16.83;;;8.35;;
22320;SDS011;11328;53.928;18.522;2022-08-19T08:08:29;15.93;;;8.25;;
22320;SDS011;11328;53.928;18.522;2022-08-19T08:11:17;21.13;;;7.88;;
22320;SDS011;11328;53.928;18.522;2022-08-19T08:13:49;13.25;;;7.65;;
22320;SDS011;11328;53.928;18.522;2022-08-19T08:16:30;15.02;;;7.93;;
22320;SDS011;11328;53.928;18.522;2022-08-19T08:19:12;14.73;;;7.97;;
22320;SDS011;11328;53.928;18.522;2022-08-19T08:22:03;18.25;;;7.28;;
22320;SDS011;11328;53.928;18.522;2022-08-19T08:24:32;17.63;;;6.90;;
22320;SDS011;11328;53.928;18.522;2022-08-19T08:27:02;18.27;;;7.03;;
22320;SDS011;11328;53.928;18.522;2022-08-19T08:29:36;16.88;;;7.00;;
22320;SDS011;11328;53.928;18.522;2022-08-19T08:32:03;15.82;;;7.50;;
22320;SDS011;11328;53.928;18.522;2022-08-19T08:34:40;15.38;;;7.07;;
22320;SDS011;11328;53.928;18.522;2022-08-19T08:37:07;13.70;;;7.55;;
22320;SDS011;11328;53.928;18.522;2022-08-19T08:39:34;16.10;;;6.80;;
22320;SDS011;11328;53.928;18.522;2022-08-19T08:47:34;14.45;;;6.90;;
22320;SDS011;11328;53.928;18.522;2022-08-19T08:50:08;14.43;;;6.80;;
22320;SDS011;11328;53.928;18.522;2022-08-19T08:52:47;17.15;;;7.30;;
22320;SDS011;11328;53.928;18.522;2022-08-19T08:55:23;19.30;;;7.70;;
22320;SDS011;11328;53.928;18.522;2022-08-19T08:58:09;15.05;;;7.18;;
22320;SDS011;11328;53.928;18.522;2022-08-19T09:00:47;11.43;;;6.88;;
22320;SDS011;11328;53.928;18.522;2022-08-19T09:03:17;15.20;;;6.72;;
22320;SDS011;11328;53.928;18.522;2022-08-19T09:08:48;12.10;;;6.65;;
22320;SDS011;11328;53.928;18.522;2022-08-19T09:11:47;14.55;;;6.82;;
22320;SDS011;11328;53.928;18.522;2022-08-19T09:14:35;13.00;;;6.88;;
22320;SDS011;11328;53.928;18.522;2022-08-19T09:17:21;11.40;;;6.85;;
22320;SDS011;11328;53.928;18.522;2022-08-19T09:20:01;13.63;;;6.85;;
22320;SDS011;11328;53.928;18.522;2022-08-19T09:22:40;15.45;;;7.35;;
22320;SDS011;11328;53.928;18.522;2022-08-19T09:25:14;21.70;;;7.10;;
22320;SDS011;11328;53.928;18.522;2022-08-19T09:27:54;20.58;;;7.35;;
22320;SDS011;11328;53.928;18.522;2022-08-19T09:30:29;12.98;;;6.80;;
22320;SDS011;11328;53.928;18.522;2022-08-19T09:33:00;20.83;;;7.18;;
22320;SDS011;11328;53.928;18.522;2022-08-19T09:35:28;16.50;;;7.28;;
22320;SDS011;11328;53.928;18.522;2022-08-19T09:37:56;18.30;;;8.02;;
22320;SDS011;11328;53.928;18.522;2022-08-19T09:40:26;12.77;;;6.65;;
22320;SDS011;11328;53.928;18.522;2022-08-19T09:42:57;16.40;;;7.65;;
22320;SDS011;11328;53.928;18.522;2022-08-19T09:45:35;16.85;;;7.15;;
22320;SDS011;11328;53.928;18.522;2022-08-19T09:48:02;18.15;;;7.13;;
22320;SDS011;11328;53.928;18.522;2022-08-19T09:50:29;20.00;;;7.00;;
22320;SDS011;11328;53.928;18.522;2022-08-19T09:53:01;16.05;;;7.65;;
22320;SDS011;11328;53.928;18.522;2022-08-19T09:55:32;13.52;;;7.15;;
22320;SDS011;11328;53.928;18.522;2022-08-19T09:57:59;14.35;;;7.25;;
22320;SDS011;11328;53.928;18.522;2022-08-19T10:00:28;18.13;;;7.43;;
22320;SDS011;11328;53.928;18.522;2022-08-19T10:02:57;14.43;;;7.22;;
22320;SDS011;11328;53.928;18.522;2022-08-19T10:05:24;12.95;;;6.90;;
22320;SDS011;11328;53.928;18.522;2022-08-19T10:08:16;40.13;;;8.68;;
22320;SDS011;11328;53.928;18.522;2022-08-19T10:10:52;15.40;;;6.63;;
22320;SDS011;11328;53.928;18.522;2022-08-19T10:13:21;15.65;;;7.38;;
22320;SDS011;11328;53.928;18.522;2022-08-19T10:15:53;17.63;;;7.28;;
22320;SDS011;11328;53.928;18.522;2022-08-19T10:18:27;19.23;;;7.03;;
22320;SDS011;11328;53.928;18.522;2022-08-19T10:21:02;14.38;;;6.90;;
22320;SDS011;11328;53.928;18.522;2022-08-19T10:23:35;11.88;;;6.45;;
22320;SDS011;11328;53.928;18.522;2022-08-19T10:26:04;12.82;;;6.93;;
22320;SDS011;11328;53.928;18.522;2022-08-19T10:28:34;18.33;;;6.50;;
22320;SDS011;11328;53.928;18.522;2022-08-19T10:31:09;12.77;;;6.60;;
22320;SDS011;11328;53.928;18.522;2022-08-19T10:34:10;17.67;;;6.97;;
22320;SDS011;11328;53.928;18.522;2022-08-19T10:36:52;11.32;;;6.80;;
22320;SDS011;11328;53.928;18.522;2022-08-19T10:39:25;18.90;;;7.13;;
22320;SDS011;11328;53.928;18.522;2022-08-19T10:42:08;14.38;;;7.38;;
22320;SDS011;11328;53.928;18.522;2022-08-19T10:44:40;17.92;;;6.30;;
22320;SDS011;11328;53.928;18.522;2022-08-19T10:47:07;16.58;;;6.47;;
22320;SDS011;11328;53.928;18.522;2022-08-19T10:49:50;18.05;;;6.90;;
22320;SDS011;11328;53.928;18.522;2022-08-19T10:52:38;19.80;;;6.90;;
22320;SDS011;11328;53.928;18.522;2022-08-19T10:55:15;13.05;;;6.53;;
22320;SDS011;11328;53.928;18.522;2022-08-19T10:58:09;21.75;;;6.25;;
22320;SDS011;11328;53.928;18.522;2022-08-19T11:00:42;20.48;;;6.35;;
22320;SDS011;11328;53.928;18.522;2022-08-19T11:03:11;15.48;;;6.32;;
22320;SDS011;11328;53.928;18.522;2022-08-19T11:05:38;11.35;;;6.05;;
22320;SDS011;11328;53.928;18.522;2022-08-19T11:08:08;13.63;;;6.63;;
22320;SDS011;11328;53.928;18.522;2022-08-19T11:10:49;15.55;;;6.35;;
22320;SDS011;11328;53.928;18.522;2022-08-19T11:13:22;20.08;;;6.22;;
22320;SDS011;11328;53.928;18.522;2022-08-19T11:15:57;21.98;;;6.45;;
22320;SDS011;11328;53.928;18.522;2022-08-19T11:18:32;19.55;;;6.68;;
22320;SDS011;11328;53.928;18.522;2022-08-19T11:21:20;16.30;;;6.10;;
22320;SDS011;11328;53.928;18.522;2022-08-19T11:23:56;13.32;;;6.18;;
22320;SDS011;11328;53.928;18.522;2022-08-19T11:28:57;16.50;;;6.15;;
22320;SDS011;11328;53.928;18.522;2022-08-19T11:31:26;17.08;;;6.13;;
22320;SDS011;11328;53.928;18.522;2022-08-19T11:34:00;13.98;;;5.82;;
22320;SDS011;11328;53.928;18.522;2022-08-19T11:36:29;26.50;;;6.32;;
22320;SDS011;11328;53.928;18.522;2022-08-19T11:38:58;13.45;;;5.78;;
22320;SDS011;11328;53.928;18.522;2022-08-19T11:41:26;13.25;;;6.00;;
22320;SDS011;11328;53.928;18.522;2022-08-19T11:43:54;12.75;;;5.85;;
22320;SDS011;11328;53.928;18.522;2022-08-19T11:46:22;12.20;;;6.05;;
22320;SDS011;11328;53.928;18.522;2022-08-19T11:48:55;16.70;;;5.97;;
22320;SDS011;11328;53.928;18.522;2022-08-19T11:51:25;12.32;;;5.90;;
22320;SDS011;11328;53.928;18.522;2022-08-19T11:53:53;18.25;;;6.10;;
22320;SDS011;11328;53.928;18.522;2022-08-19T11:56:22;112.07;;;12.55;;
22320;SDS011;11328;53.928;18.522;2022-08-19T11:58:52;12.55;;;5.90;;
22320;SDS011;11328;53.928;18.522;2022-08-19T12:01:21;20.23;;;6.07;;
22320;SDS011;11328;53.928;18.522;2022-08-19T12:03:50;12.80;;;5.72;;
22320;SDS011;11328;53.928;18.522;2022-08-19T12:06:21;13.73;;;5.55;;
22320;SDS011;11328;53.928;18.522;2022-08-19T12:08:55;34.20;;;7.70;;
22320;SDS011;11328;53.928;18.522;2022-08-19T12:11:27;19.67;;;6.10;;
22320;SDS011;11328;53.928;18.522;2022-08-19T12:16:27;49.60;;;7.82;;
22320;SDS011;11328;53.928;18.522;2022-08-19T12:18:58;24.27;;;6.10;;
22320;SDS011;11328;53.928;18.522;2022-08-19T12:21:31;11.38;;;5.95;;
22320;SDS011;11328;53.928;18.522;2022-08-19T12:24:02;28.27;;;6.20;;
22320;SDS011;11328;53.928;18.522;2022-08-19T12:26:32;73.65;;;9.30;;
22320;SDS011;11328;53.928;18.522;2022-08-19T12:29:17;17.40;;;6.05;;
22320;SDS011;11328;53.928;18.522;2022-08-19T12:31:49;14.25;;;5.80;;
22320;SDS011;11328;53.928;18.522;2022-08-19T12:34:17;23.80;;;6.50;;
22320;SDS011;11328;53.928;18.522;2022-08-19T12:36:46;19.52;;;6.43;;
22320;SDS011;11328;53.928;18.522;2022-08-19T12:39:15;13.50;;;6.00;;
22320;SDS011;11328;53.928;18.522;2022-08-19T12:41:43;16.83;;;6.18;;
22320;SDS011;11328;53.928;18.522;2022-08-19T12:44:19;25.17;;;7.38;;
22320;SDS011;11328;53.928;18.522;2022-08-19T12:46:57;26.95;;;6.57;;
22320;SDS011;11328;53.928;18.522;2022-08-19T12:49:27;12.85;;;5.93;;
22320;SDS011;11328;53.928;18.522;2022-08-19T12:52:15;11.65;;;6.70;;
22320;SDS011;11328;53.928;18.522;2022-08-19T12:54:48;18.50;;;7.18;;
22320;SDS011;11328;53.928;18.522;2022-08-19T12:57:20;27.15;;;7.07;;
22320;SDS011;11328;53.928;18.522;2022-08-19T13:00:32;14.80;;;6.88;;
22320;SDS011;11328;53.928;18.522;2022-08-19T13:02:51;12.48;;;6.10;;
22320;SDS011;11328;53.928;18.522;2022-08-19T13:05:20;14.10;;;6.60;;
22320;SDS011;11328;53.928;18.522;2022-08-19T13:07:56;15.30;;;6.43;;
22320;SDS011;11328;53.928;18.522;2022-08-19T13:10:27;22.70;;;7.30;;
22320;SDS011;11328;53.928;18.522;2022-08-19T13:13:02;12.88;;;6.78;;
22320;SDS011;11328;53.928;18.522;2022-08-19T13:15:33;14.50;;;6.72;;
22320;SDS011;11328;53.928;18.522;2022-08-19T13:18:06;20.60;;;7.07;;
22320;SDS011;11328;53.928;18.522;2022-08-19T13:20:36;14.63;;;6.75;;
22320;SDS011;11328;53.928;18.522;2022-08-19T13:23:07;17.52;;;7.40;;
22320;SDS011;11328;53.928;18.522;2022-08-19T13:25:35;18.58;;;7.20;;
22320;SDS011;11328;53.928;18.522;2022-08-19T13:28:03;15.13;;;6.97;;
22320;SDS011;11328;53.928;18.522;2022-08-19T13:30:32;19.50;;;7.10;;
22320;SDS011;11328;53.928;18.522;2022-08-19T13:33:25;13.82;;;7.18;;
22320;SDS011;11328;53.928;18.522;2022-08-19T13:35:56;16.58;;;6.90;;
22320;SDS011;11328;53.928;18.522;2022-08-19T13:38:27;55.08;;;9.98;;
22320;SDS011;11328;53.928;18.522;2022-08-19T13:40:54;11.95;;;7.05;;
22320;SDS011;11328;53.928;18.522;2022-08-19T13:43:23;13.45;;;7.05;;
22320;SDS011;11328;53.928;18.522;2022-08-19T13:45:53;15.52;;;7.18;;
22320;SDS011;11328;53.928;18.522;2022-08-19T13:48:23;14.68;;;7.57;;
22320;SDS011;11328;53.928;18.522;2022-08-19T13:50:53;14.38;;;7.35;;
22320;SDS011;11328;53.928;18.522;2022-08-19T13:53:20;13.68;;;7.35;;
22320;SDS011;11328;53.928;18.522;2022-08-19T13:55:49;17.23;;;7.15;;
22320;SDS011;11328;53.928;18.522;2022-08-19T13:58:17;17.48;;;7.30;;
22320;SDS011;11328;53.928;18.522;2022-08-19T14:00:48;14.95;;;7.25;;
22320;SDS011;11328;53.928;18.522;2022-08-19T14:03:18;15.40;;;7.13;;
22320;SDS011;11328;53.928;18.522;2022-08-19T14:05:45;16.60;;;7.53;;
22320;SDS011;11328;53.928;18.522;2022-08-19T14:08:13;20.02;;;7.50;;
22320;SDS011;11328;53.928;18.522;2022-08-19T14:10:40;18.80;;;7.50;;
22320;SDS011;11328;53.928;18.522;2022-08-19T14:13:12;13.25;;;6.70;;
22320;SDS011;11328;53.928;18.522;2022-08-19T14:15:43;14.65;;;7.15;;
22320;SDS011;11328;53.928;18.522;2022-08-19T14:18:11;14.02;;;7.10;;
22320;SDS011;11328;53.928;18.522;2022-08-19T14:20:38;15.73;;;6.82;;
22320;SDS011;11328;53.928;18.522;2022-08-19T14:23:08;14.52;;;7.30;;
22320;SDS011;11328;53.928;18.522;2022-08-19T14:25:36;54.60;;;8.55;;
22320;SDS011;11328;53.928;18.522;2022-08-19T14:28:03;11.77;;;6.72;;
22320;SDS011;11328;53.928;18.522;2022-08-19T14:30:31;20.02;;;7.40;;
22320;SDS011;11328;53.928;18.522;2022-08-19T14:33:04;18.00;;;7.32;;
22320;SDS011;11328;53.928;18.522;2022-08-19T14:35:33;17.23;;;6.72;;
22320;SDS011;11328;53.928;18.522;2022-08-19T14:38:06;19.08;;;6.88;;
22320;SDS011;11328;53.928;18.522;2022-08-19T14:41:17;19.85;;;6.97;;
22320;SDS011;11328;53.928;18.522;2022-08-19T14:43:53;27.40;;;7.60;;
22320;SDS011;11328;53.928;18.522;2022-08-19T14:46:23;19.15;;;7.43;;
22320;SDS011;11328;53.928;18.522;2022-08-19T14:48:55;16.70;;;7.40;;
22320;SDS011;11328;53.928;18.522;2022-08-19T14:51:25;15.65;;;7.13;;
22320;SDS011;11328;53.928;18.522;2022-08-19T14:53:55;25.50;;;7.32;;
22320;SDS011;11328;53.928;18.522;2022-08-19T14:56:24;17.95;;;7.55;;
22320;SDS011;11328;53.928;18.522;2022-08-19T14:58:54;12.60;;;7.13;;
22320;SDS011;11328;53.928;18.522;2022-08-19T15:01:25;17.83;;;7.63;;